sensor_id;sensor_type;location;lat;lon;timestamp;pressure;altitude;pressure_sealevel;temperature;humidity
70909;BME280;58554;52.006;5.926;2022-08-19T00:01:40;100519.47;;;22.98;56.68
70909;BME280;58554;52.006;5.926;2022-08-19T00:04:10;100516.97;;;22.96;56.65
70909;BME280;58554;52.006;5.926;2022-08-19T00:06:44;100509.19;;;22.93;56.91
70909;BME280;58554;52.006;5.926;2022-08-19T00:09:14;100519.31;;;22.91;57.15
70909;BME280;58554;52.006;5.926;2022-08-19T00:11:43;100510.94;;;22.86;57.19
70909;BME280;58554;52.006;5.926;2022-08-19T00:14:13;100520.03;;;22.85;57.12
70909;BME280;58554;52.006;5.926;2022-08-19T00:16:43;100517.84;;;22.80;57.34
70909;BME280;58554;52.006;5.926;2022-08-19T00:19:15;100519.22;;;22.76;57.19
70909;BME280;58554;52.006;5.926;2022-08-19T00:21:42;100521.38;;;22.73;57.30
70909;BME280;58554;52.006;5.926;2022-08-19T00:24:11;100525.25;;;22.70;57.33
70909;BME280;58554;52.006;5.926;2022-08-19T00:26:40;100519.38;;;22.67;57.42
70909;BME280;58554;52.006;5.926;2022-08-19T00:29:09;100522.06;;;22.67;57.55
70909;BME280;58554;52.006;5.926;2022-08-19T00:31:37;100510.16;;;22.61;57.64
70909;BME280;58554;52.006;5.926;2022-08-19T00:34:03;100505.94;;;22.58;57.57
70909;BME280;58554;52.006;5.926;2022-08-19T00:36:32;100505.28;;;22.56;57.70
70909;BME280;58554;52.006;5.926;2022-08-19T00:39:00;100510.16;;;22.53;57.65
70909;BME280;58554;52.006;5.926;2022-08-19T00:41:27;100505.97;;;22.50;57.86
70909;BME280;58554;52.006;5.926;2022-08-19T00:43:59;100508.81;;;22.49;57.85
70909;BME280;58554;52.006;5.926;2022-08-19T00:46:28;100508.31;;;22.45;57.60
70909;BME280;58554;52.006;5.926;2022-08-19T00:48:56;100506.97;;;22.41;57.80
70909;BME280;58554;52.006;5.926;2022-08-19T00:51:24;100516.25;;;22.38;57.92
70909;BME280;58554;52.006;5.926;2022-08-19T00:53:55;100517.44;;;22.36;57.96
70909;BME280;58554;52.006;5.926;2022-08-19T00:56:23;100515.91;;;22.33;57.76
70909;BME280;58554;52.006;5.926;2022-08-19T00:58:52;100521.50;;;22.32;58.03
70909;BME280;58554;52.006;5.926;2022-08-19T01:01:20;100515.44;;;22.30;57.89
70909;BME280;58554;52.006;5.926;2022-08-19T01:03:46;100516.63;;;22.27;58.04
70909;BME280;58554;52.006;5.926;2022-08-19T01:06:13;100519.47;;;22.26;57.99
70909;BME280;58554;52.006;5.926;2022-08-19T01:08:40;100514.41;;;22.22;57.61
70909;BME280;58554;52.006;5.926;2022-08-19T01:11:09;100516.44;;;22.20;57.81
70909;BME280;58554;52.006;5.926;2022-08-19T01:13:36;100517.78;;;22.16;57.82
70909;BME280;58554;52.006;5.926;2022-08-19T01:16:05;100517.13;;;22.14;57.85
70909;BME280;58554;52.006;5.926;2022-08-19T01:18:36;100515.78;;;22.10;57.80
70909;BME280;58554;52.006;5.926;2022-08-19T01:21:10;100514.94;;;22.10;58.07
70909;BME280;58554;52.006;5.926;2022-08-19T01:23:45;100519.81;;;22.06;57.94
70909;BME280;58554;52.006;5.926;2022-08-19T01:26:14;100522.03;;;22.02;57.98
70909;BME280;58554;52.006;5.926;2022-08-19T01:28:45;100519.50;;;22.01;58.25
70909;BME280;58554;52.006;5.926;2022-08-19T01:31:15;100525.00;;;21.99;57.95
70909;BME280;58554;52.006;5.926;2022-08-19T01:33:45;100522.47;;;21.98;58.12
70909;BME280;58554;52.006;5.926;2022-08-19T01:36:21;100521.66;;;21.97;58.09
70909;BME280;58554;52.006;5.926;2022-08-19T01:38:53;100517.28;;;21.96;58.27
70909;BME280;58554;52.006;5.926;2022-08-19T01:41:20;100519.97;;;21.96;58.14
70909;BME280;58554;52.006;5.926;2022-08-19T01:43:47;100513.75;;;21.96;58.29
70909;BME280;58554;52.006;5.926;2022-08-19T01:46:13;100515.44;;;21.97;58.28
70909;BME280;58554;52.006;5.926;2022-08-19T01:48:42;100512.91;;;21.95;58.23
70909;BME280;58554;52.006;5.926;2022-08-19T01:51:11;100512.56;;;21.98;58.62
70909;BME280;58554;52.006;5.926;2022-08-19T01:53:39;100518.78;;;21.99;58.51
70909;BME280;58554;52.006;5.926;2022-08-19T01:56:09;100517.97;;;21.98;58.64
70909;BME280;58554;52.006;5.926;2022-08-19T01:58:38;100515.94;;;22.00;58.44
70909;BME280;58554;52.006;5.926;2022-08-19T02:01:10;100519.34;;;22.02;58.72
70909;BME280;58554;52.006;5.926;2022-08-19T02:03:36;100523.53;;;22.05;58.65
70909;BME280;58554;52.006;5.926;2022-08-19T02:06:03;100525.19;;;22.06;58.66
70909;BME280;58554;52.006;5.926;2022-08-19T02:08:34;100523.19;;;22.08;58.77
70909;BME280;58554;52.006;5.926;2022-08-19T02:11:03;100536.47;;;22.10;58.73
70909;BME280;58554;52.006;5.926;2022-08-19T02:13:34;100540.88;;;22.11;58.66
70909;BME280;58554;52.006;5.926;2022-08-19T02:16:01;100539.69;;;22.13;58.72
70909;BME280;58554;52.006;5.926;2022-08-19T02:18:27;100535.13;;;22.14;58.42
70909;BME280;58554;52.006;5.926;2022-08-19T02:20:54;100536.63;;;22.16;58.52
70909;BME280;58554;52.006;5.926;2022-08-19T02:23:20;100535.66;;;22.17;58.52
70909;BME280;58554;52.006;5.926;2022-08-19T02:25:48;100532.28;;;22.15;58.68
70909;BME280;58554;52.006;5.926;2022-08-19T02:28:17;100529.25;;;22.18;58.35
70909;BME280;58554;52.006;5.926;2022-08-19T02:30:47;100534.97;;;22.15;58.28
70909;BME280;58554;52.006;5.926;2022-08-19T02:33:14;100541.03;;;22.17;58.52
70909;BME280;58554;52.006;5.926;2022-08-19T02:35:41;100540.00;;;22.18;58.11
70909;BME280;58554;52.006;5.926;2022-08-19T02:38:08;100540.88;;;22.19;58.19
70909;BME280;58554;52.006;5.926;2022-08-19T02:40:35;100535.66;;;22.17;58.20
70909;BME280;58554;52.006;5.926;2022-08-19T02:43:01;100527.56;;;22.17;57.96
70909;BME280;58554;52.006;5.926;2022-08-19T02:45:31;100529.59;;;22.15;57.96
70909;BME280;58554;52.006;5.926;2022-08-19T02:48:03;100531.59;;;22.13;57.86
70909;BME280;58554;52.006;5.926;2022-08-19T02:50:30;100522.84;;;22.11;58.05
70909;BME280;58554;52.006;5.926;2022-08-19T02:52:57;100525.03;;;22.08;58.08
70909;BME280;58554;52.006;5.926;2022-08-19T02:55:24;100519.66;;;22.08;57.69
70909;BME280;58554;52.006;5.926;2022-08-19T02:57:50;100522.88;;;22.03;57.94
70909;BME280;58554;52.006;5.926;2022-08-19T03:00:17;100527.41;;;22.02;58.24
70909;BME280;58554;52.006;5.926;2022-08-19T03:02:43;100527.88;;;21.98;58.10
70909;BME280;58554;52.006;5.926;2022-08-19T03:05:12;100532.75;;;21.94;58.02
70909;BME280;58554;52.006;5.926;2022-08-19T03:07:39;100532.09;;;21.92;58.11
70909;BME280;58554;52.006;5.926;2022-08-19T03:10:07;100528.88;;;21.89;58.18
70909;BME280;58554;52.006;5.926;2022-08-19T03:12:36;100534.28;;;21.89;58.45
70909;BME280;58554;52.006;5.926;2022-08-19T03:15:05;100524.00;;;21.84;58.24
70909;BME280;58554;52.006;5.926;2022-08-19T03:17:33;100528.88;;;21.80;58.26
70909;BME280;58554;52.006;5.926;2022-08-19T03:20:00;100528.19;;;21.78;58.40
70909;BME280;58554;52.006;5.926;2022-08-19T03:22:29;100533.25;;;21.73;58.42
70909;BME280;58554;52.006;5.926;2022-08-19T03:24:56;100529.88;;;21.71;58.15
70909;BME280;58554;52.006;5.926;2022-08-19T03:27:22;100524.00;;;21.68;58.48
70909;BME280;58554;52.006;5.926;2022-08-19T03:29:49;100530.56;;;21.65;58.61
70909;BME280;58554;52.006;5.926;2022-08-19T03:32:15;100530.88;;;21.62;58.59
70909;BME280;58554;52.006;5.926;2022-08-19T03:34:42;100531.38;;;21.57;58.60
70909;BME280;58554;52.006;5.926;2022-08-19T03:37:10;100537.78;;;21.56;58.57
70909;BME280;58554;52.006;5.926;2022-08-19T03:39:41;100533.72;;;21.52;58.62
70909;BME280;58554;52.006;5.926;2022-08-19T03:42:08;100534.88;;;21.50;58.71
70909;BME280;58554;52.006;5.926;2022-08-19T03:44:35;100536.06;;;21.47;58.61
70909;BME280;58554;52.006;5.926;2022-08-19T03:47:02;100531.03;;;21.44;58.77
70909;BME280;58554;52.006;5.926;2022-08-19T03:49:32;100528.50;;;21.42;59.02
70909;BME280;58554;52.006;5.926;2022-08-19T03:51:59;100532.34;;;21.40;58.82
70909;BME280;58554;52.006;5.926;2022-08-19T03:54:27;100532.66;;;21.37;58.92
70909;BME280;58554;52.006;5.926;2022-08-19T03:56:57;100537.38;;;21.35;58.94
70909;BME280;58554;52.006;5.926;2022-08-19T03:59:26;100539.72;;;21.30;58.77
70909;BME280;58554;52.006;5.926;2022-08-19T04:02:00;100532.84;;;21.27;59.34
70909;BME280;58554;52.006;5.926;2022-08-19T04:04:29;100522.22;;;21.26;59.01
70909;BME280;58554;52.006;5.926;2022-08-19T04:06:56;100528.59;;;21.25;58.78
70909;BME280;58554;52.006;5.926;2022-08-19T04:09:23;100535.00;;;21.23;58.75
70909;BME280;58554;52.006;5.926;2022-08-19T04:11:53;100536.13;;;21.21;58.85
70909;BME280;58554;52.006;5.926;2022-08-19T04:14:26;100526.38;;;21.20;58.99
70909;BME280;58554;52.006;5.926;2022-08-19T04:16:54;100524.03;;;21.17;59.03
70909;BME280;58554;52.006;5.926;2022-08-19T04:19:21;100528.53;;;21.16;59.09
70909;BME280;58554;52.006;5.926;2022-08-19T04:21:49;100535.28;;;21.20;59.10
70909;BME280;58554;52.006;5.926;2022-08-19T04:24:18;100531.47;;;21.23;59.03
70909;BME280;58554;52.006;5.926;2022-08-19T04:26:45;100527.75;;;21.24;58.93
70909;BME280;58554;52.006;5.926;2022-08-19T04:29:16;100518.72;;;21.25;58.54
70909;BME280;58554;52.006;5.926;2022-08-19T04:31:48;100518.03;;;21.23;58.41
70909;BME280;58554;52.006;5.926;2022-08-19T04:34:21;100513.28;;;21.17;58.88
70909;BME280;58554;52.006;5.926;2022-08-19T04:36:50;100504.84;;;21.12;58.53
70909;BME280;58554;52.006;5.926;2022-08-19T04:39:21;100501.28;;;21.03;58.46
70909;BME280;58554;52.006;5.926;2022-08-19T04:41:49;100513.84;;;20.94;58.43
70909;BME280;58554;52.006;5.926;2022-08-19T04:44:16;100513.97;;;20.85;58.70
70909;BME280;58554;52.006;5.926;2022-08-19T04:46:43;100507.03;;;20.74;58.76
70909;BME280;58554;52.006;5.926;2022-08-19T04:49:13;100507.50;;;20.61;58.99
70909;BME280;58554;52.006;5.926;2022-08-19T04:51:44;100510.28;;;20.51;59.24
70909;BME280;58554;52.006;5.926;2022-08-19T04:54:15;100509.84;;;20.38;59.28
70909;BME280;58554;52.006;5.926;2022-08-19T04:56:43;100514.63;;;20.26;59.21
70909;BME280;58554;52.006;5.926;2022-08-19T04:59:10;100512.50;;;20.12;59.55
70909;BME280;58554;52.006;5.926;2022-08-19T05:01:36;100521.09;;;19.97;59.54
70909;BME280;58554;52.006;5.926;2022-08-19T05:04:05;100522.53;;;19.84;60.03
70909;BME280;58554;52.006;5.926;2022-08-19T05:06:36;100523.06;;;19.69;60.47
70909;BME280;58554;52.006;5.926;2022-08-19T05:09:03;100521.56;;;19.57;60.52
70909;BME280;58554;52.006;5.926;2022-08-19T05:11:33;100516.41;;;19.46;60.99
70909;BME280;58554;52.006;5.926;2022-08-19T05:14:02;100511.13;;;19.36;61.10
70909;BME280;58554;52.006;5.926;2022-08-19T05:16:28;100522.59;;;19.28;61.74
70909;BME280;58554;52.006;5.926;2022-08-19T05:18:55;100525.19;;;19.20;62.17
70909;BME280;58554;52.006;5.926;2022-08-19T05:21:22;100523.94;;;19.14;62.50
70909;BME280;58554;52.006;5.926;2022-08-19T05:23:51;100521.03;;;19.08;63.00
70909;BME280;58554;52.006;5.926;2022-08-19T05:26:17;100526.69;;;19.05;63.05
70909;BME280;58554;52.006;5.926;2022-08-19T05:28:44;100522.44;;;19.02;63.54
70909;BME280;58554;52.006;5.926;2022-08-19T05:31:10;100530.66;;;19.00;63.60
70909;BME280;58554;52.006;5.926;2022-08-19T05:33:37;100534.19;;;19.01;63.96
70909;BME280;58554;52.006;5.926;2022-08-19T05:36:04;100528.81;;;19.01;64.28
70909;BME280;58554;52.006;5.926;2022-08-19T05:38:31;100527.66;;;19.04;64.70
70909;BME280;58554;52.006;5.926;2022-08-19T05:41:00;100527.66;;;19.04;64.94
70909;BME280;58554;52.006;5.926;2022-08-19T05:43:27;100527.66;;;19.04;65.27
70909;BME280;58554;52.006;5.926;2022-08-19T05:45:54;100529.19;;;19.06;65.39
70909;BME280;58554;52.006;5.926;2022-08-19T05:48:20;100530.06;;;19.07;65.59
70909;BME280;58554;52.006;5.926;2022-08-19T05:50:47;100537.09;;;19.08;65.86
70909;BME280;58554;52.006;5.926;2022-08-19T05:53:15;100536.97;;;19.09;65.85
70909;BME280;58554;52.006;5.926;2022-08-19T05:55:42;100539.31;;;19.12;66.15
70909;BME280;58554;52.006;5.926;2022-08-19T05:58:11;100536.66;;;19.12;66.48
70909;BME280;58554;52.006;5.926;2022-08-19T06:00:38;100531.00;;;19.15;66.33
70909;BME280;58554;52.006;5.926;2022-08-19T06:03:08;100529.56;;;19.21;66.54
70909;BME280;58554;52.006;5.926;2022-08-19T06:05:35;100525.75;;;19.24;66.68
70909;BME280;58554;52.006;5.926;2022-08-19T06:08:02;100527.97;;;19.28;66.96
70909;BME280;58554;52.006;5.926;2022-08-19T06:10:29;100532.88;;;19.33;66.99
70909;BME280;58554;52.006;5.926;2022-08-19T06:12:55;100543.31;;;19.36;67.06
70909;BME280;58554;52.006;5.926;2022-08-19T06:15:24;100541.13;;;19.39;67.11
70909;BME280;58554;52.006;5.926;2022-08-19T06:17:51;100544.38;;;19.43;66.98
70909;BME280;58554;52.006;5.926;2022-08-19T06:20:18;100547.28;;;19.50;66.93
70909;BME280;58554;52.006;5.926;2022-08-19T06:22:49;100545.00;;;19.55;67.17
70909;BME280;58554;52.006;5.926;2022-08-19T06:25:17;100559.84;;;19.59;67.21
70909;BME280;58554;52.006;5.926;2022-08-19T06:27:44;100550.78;;;19.60;67.14
70909;BME280;58554;52.006;5.926;2022-08-19T06:30:12;100556.84;;;19.62;67.20
70909;BME280;58554;52.006;5.926;2022-08-19T06:32:41;100548.50;;;19.65;67.28
70909;BME280;58554;52.006;5.926;2022-08-19T06:35:08;100545.34;;;19.70;67.33
70909;BME280;58554;52.006;5.926;2022-08-19T06:37:36;100554.47;;;19.77;67.51
70909;BME280;58554;52.006;5.926;2022-08-19T06:40:03;100545.13;;;19.81;67.42
70909;BME280;58554;52.006;5.926;2022-08-19T06:42:31;100548.06;;;19.88;67.14
70909;BME280;58554;52.006;5.926;2022-08-19T06:44:57;100550.94;;;19.94;67.27
70909;BME280;58554;52.006;5.926;2022-08-19T06:47:24;100547.47;;;20.02;67.14
70909;BME280;58554;52.006;5.926;2022-08-19T06:49:56;100549.41;;;20.10;67.52
70909;BME280;58554;52.006;5.926;2022-08-19T06:52:24;100554.00;;;20.17;67.02
70909;BME280;58554;52.006;5.926;2022-08-19T06:54:50;100546.84;;;20.26;66.83
70909;BME280;58554;52.006;5.926;2022-08-19T06:57:16;100541.53;;;20.34;66.98
70909;BME280;58554;52.006;5.926;2022-08-19T06:59:43;100544.41;;;20.41;66.80
70909;BME280;58554;52.006;5.926;2022-08-19T07:02:09;100555.41;;;20.48;66.84
70909;BME280;58554;52.006;5.926;2022-08-19T07:04:36;100553.78;;;20.55;66.65
70909;BME280;58554;52.006;5.926;2022-08-19T07:07:09;100546.47;;;20.65;66.69
70909;BME280;58554;52.006;5.926;2022-08-19T07:09:39;100548.88;;;20.76;66.20
70909;BME280;58554;52.006;5.926;2022-08-19T07:12:09;100553.13;;;20.87;66.08
70909;BME280;58554;52.006;5.926;2022-08-19T07:14:38;100555.69;;;20.97;65.90
70909;BME280;58554;52.006;5.926;2022-08-19T07:17:07;100561.63;;;21.09;65.95
70909;BME280;58554;52.006;5.926;2022-08-19T07:19:35;100565.88;;;21.19;65.40
70909;BME280;58554;52.006;5.926;2022-08-19T07:22:07;100567.47;;;21.30;65.43
70909;BME280;58554;52.006;5.926;2022-08-19T07:24:36;100563.44;;;21.34;65.07
70909;BME280;58554;52.006;5.926;2022-08-19T07:27:05;100558.56;;;21.38;65.15
70909;BME280;58554;52.006;5.926;2022-08-19T07:29:34;100572.06;;;21.46;64.93
70909;BME280;58554;52.006;5.926;2022-08-19T07:32:03;100568.53;;;21.54;64.92
70909;BME280;58554;52.006;5.926;2022-08-19T07:34:31;100572.25;;;21.61;64.76
70909;BME280;58554;52.006;5.926;2022-08-19T07:36:58;100582.00;;;21.70;64.35
70909;BME280;58554;52.006;5.926;2022-08-19T07:39:29;100582.19;;;21.77;64.01
70909;BME280;58554;52.006;5.926;2022-08-19T07:42:00;100577.47;;;21.79;63.99
70909;BME280;58554;52.006;5.926;2022-08-19T07:44:29;100582.88;;;21.79;63.66
70909;BME280;58554;52.006;5.926;2022-08-19T07:46:57;100585.41;;;21.80;63.82
70909;BME280;58554;52.006;5.926;2022-08-19T07:49:23;100587.59;;;21.85;63.74
70909;BME280;58554;52.006;5.926;2022-08-19T07:51:52;100582.41;;;21.92;63.47
70909;BME280;58554;52.006;5.926;2022-08-19T07:54:22;100582.56;;;21.98;63.33
70909;BME280;58554;52.006;5.926;2022-08-19T07:56:53;100588.16;;;22.05;63.10
70909;BME280;58554;52.006;5.926;2022-08-19T07:59:20;100598.41;;;22.10;63.00
70909;BME280;58554;52.006;5.926;2022-08-19T08:01:48;100597.75;;;22.08;62.90
70909;BME280;58554;52.006;5.926;2022-08-19T08:04:15;100605.16;;;22.06;62.86
70909;BME280;58554;52.006;5.926;2022-08-19T08:06:43;100593.88;;;22.02;62.69
70909;BME280;58554;52.006;5.926;2022-08-19T08:09:10;100593.03;;;22.01;62.80
70909;BME280;58554;52.006;5.926;2022-08-19T08:11:38;100591.31;;;22.00;62.64
70909;BME280;58554;52.006;5.926;2022-08-19T08:14:08;100596.34;;;21.95;62.65
70909;BME280;58554;52.006;5.926;2022-08-19T08:16:36;100602.25;;;21.91;62.87
70909;BME280;58554;52.006;5.926;2022-08-19T08:19:03;100598.72;;;21.90;62.67
70909;BME280;58554;52.006;5.926;2022-08-19T08:21:30;100598.88;;;21.89;62.85
70909;BME280;58554;52.006;5.926;2022-08-19T08:23:57;100605.97;;;21.90;62.88
70909;BME280;58554;52.006;5.926;2022-08-19T08:26:24;100606.63;;;21.92;62.68
70909;BME280;58554;52.006;5.926;2022-08-19T08:28:51;100606.97;;;21.97;62.95
70909;BME280;58554;52.006;5.926;2022-08-19T08:31:21;100616.75;;;22.06;62.78
70909;BME280;58554;52.006;5.926;2022-08-19T08:33:48;100616.94;;;22.13;62.82
70909;BME280;58554;52.006;5.926;2022-08-19T08:36:14;100622.34;;;22.21;62.40
70909;BME280;58554;52.006;5.926;2022-08-19T08:38:42;100623.19;;;22.30;62.13
70909;BME280;58554;52.006;5.926;2022-08-19T08:41:15;100627.56;;;22.31;61.85
70909;BME280;58554;52.006;5.926;2022-08-19T08:43:49;100616.09;;;22.29;61.71
70909;BME280;58554;52.006;5.926;2022-08-19T08:46:25;100618.13;;;22.27;61.24
70909;BME280;58554;52.006;5.926;2022-08-19T08:49:00;100622.16;;;22.22;60.96
70909;BME280;58554;52.006;5.926;2022-08-19T08:51:34;100620.13;;;22.24;61.36
70909;BME280;58554;52.006;5.926;2022-08-19T08:54:12;100618.13;;;22.27;60.74
70909;BME280;58554;52.006;5.926;2022-08-19T08:56:43;100612.72;;;22.27;60.80
70909;BME280;58554;52.006;5.926;2022-08-19T08:59:16;100616.09;;;22.29;60.84
70909;BME280;58554;52.006;5.926;2022-08-19T09:01:50;100616.78;;;22.31;60.90
70909;BME280;58554;52.006;5.926;2022-08-19T09:04:17;100613.75;;;22.34;60.87
70909;BME280;58554;52.006;5.926;2022-08-19T09:06:50;100612.41;;;22.38;60.67
70909;BME280;58554;52.006;5.926;2022-08-19T09:09:27;100615.59;;;22.41;60.64
70909;BME280;58554;52.006;5.926;2022-08-19T09:12:05;100620.31;;;22.48;60.44
70909;BME280;58554;52.006;5.926;2022-08-19T09:14:46;100610.03;;;22.51;60.12
70909;BME280;58554;52.006;5.926;2022-08-19T09:17:22;100619.63;;;22.54;59.94
70909;BME280;58554;52.006;5.926;2022-08-19T09:19:57;100610.19;;;22.58;59.68
70909;BME280;58554;52.006;5.926;2022-08-19T09:22:25;100614.06;;;22.63;59.54
70909;BME280;58554;52.006;5.926;2022-08-19T09:24:52;100608.31;;;22.67;59.80
70909;BME280;58554;52.006;5.926;2022-08-19T09:27:20;100614.06;;;22.72;59.21
70909;BME280;58554;52.006;5.926;2022-08-19T09:29:48;100611.69;;;22.69;59.46
70909;BME280;58554;52.006;5.926;2022-08-19T09:32:15;100621.97;;;22.73;59.89
70909;BME280;58554;52.006;5.926;2022-08-19T09:34:44;100617.75;;;22.79;59.84
70909;BME280;58554;52.006;5.926;2022-08-19T09:37:11;100615.25;;;22.86;59.46
70909;BME280;58554;52.006;5.926;2022-08-19T09:39:40;100618.94;;;22.93;59.53
70909;BME280;58554;52.006;5.926;2022-08-19T09:42:07;100615.38;;;23.00;58.90
70909;BME280;58554;52.006;5.926;2022-08-19T09:44:34;100616.34;;;23.08;58.95
70909;BME280;58554;52.006;5.926;2022-08-19T09:47:00;100619.03;;;23.16;58.79
70909;BME280;58554;52.006;5.926;2022-08-19T09:49:29;100617.31;;;23.23;58.81
70909;BME280;58554;52.006;5.926;2022-08-19T09:51:58;100618.78;;;23.34;58.88
70909;BME280;58554;52.006;5.926;2022-08-19T09:54:25;100620.09;;;23.46;58.58
70909;BME280;58554;52.006;5.926;2022-08-19T09:56:53;100623.56;;;23.63;58.44
70909;BME280;58554;52.006;5.926;2022-08-19T09:59:21;100624.00;;;23.75;58.11
70909;BME280;58554;52.006;5.926;2022-08-19T10:01:48;100627.03;;;23.80;57.89
70909;BME280;58554;52.006;5.926;2022-08-19T10:04:15;100632.03;;;23.83;57.84
70909;BME280;58554;52.006;5.926;2022-08-19T10:06:41;100631.22;;;23.82;57.33
70909;BME280;58554;52.006;5.926;2022-08-19T10:09:10;100637.44;;;23.83;57.26
70909;BME280;58554;52.006;5.926;2022-08-19T10:11:40;100631.38;;;23.81;57.07
70909;BME280;58554;52.006;5.926;2022-08-19T10:14:08;100625.53;;;23.77;56.92
70909;BME280;58554;52.006;5.926;2022-08-19T10:16:36;100639.53;;;23.73;56.52
70909;BME280;58554;52.006;5.926;2022-08-19T10:19:03;100632.81;;;23.69;56.87
70909;BME280;58554;52.006;5.926;2022-08-19T10:21:31;100635.03;;;23.65;56.94
70909;BME280;58554;52.006;5.926;2022-08-19T10:24:00;100634.38;;;23.63;56.51
70909;BME280;58554;52.006;5.926;2022-08-19T10:26:33;100628.31;;;23.61;56.53
70909;BME280;58554;52.006;5.926;2022-08-19T10:29:04;100633.72;;;23.61;56.94
70909;BME280;58554;52.006;5.926;2022-08-19T10:31:32;100620.56;;;23.58;56.66
70909;BME280;58554;52.006;5.926;2022-08-19T10:34:01;100626.31;;;23.55;56.58
70909;BME280;58554;52.006;5.926;2022-08-19T10:36:29;100632.72;;;23.54;56.85
70909;BME280;58554;52.006;5.926;2022-08-19T10:38:59;100628.84;;;23.56;56.60
70909;BME280;58554;52.006;5.926;2022-08-19T10:41:33;100628.66;;;23.58;56.51
70909;BME280;58554;52.006;5.926;2022-08-19T10:44:06;100623.91;;;23.60;56.34
70909;BME280;58554;52.006;5.926;2022-08-19T10:46:37;100614.81;;;23.61;56.07
70909;BME280;58554;52.006;5.926;2022-08-19T10:49:05;100617.16;;;23.64;56.30
70909;BME280;58554;52.006;5.926;2022-08-19T10:51:32;100631.31;;;23.66;56.66
70909;BME280;58554;52.006;5.926;2022-08-19T10:53:59;100622.88;;;23.69;56.19
70909;BME280;58554;52.006;5.926;2022-08-19T10:56:27;100623.34;;;23.73;56.33
70909;BME280;58554;52.006;5.926;2022-08-19T10:58:57;100630.59;;;23.72;56.52
70909;BME280;58554;52.006;5.926;2022-08-19T11:01:24;100617.09;;;23.72;56.07
70909;BME280;58554;52.006;5.926;2022-08-19T11:03:51;100620.47;;;23.74;55.97
70909;BME280;58554;52.006;5.926;2022-08-19T11:06:18;100611.16;;;23.77;55.90
70909;BME280;58554;52.006;5.926;2022-08-19T11:08:45;100613.34;;;23.81;56.03
70909;BME280;58554;52.006;5.926;2022-08-19T11:11:12;100612.81;;;23.86;55.66
70909;BME280;58554;52.006;5.926;2022-08-19T11:13:40;100606.03;;;23.90;55.91
70909;BME280;58554;52.006;5.926;2022-08-19T11:16:12;100607.16;;;23.96;55.73
70909;BME280;58554;52.006;5.926;2022-08-19T11:18:42;100602.41;;;23.98;55.36
70909;BME280;58554;52.006;5.926;2022-08-19T11:21:15;100612.88;;;24.01;55.19
70909;BME280;58554;52.006;5.926;2022-08-19T11:23:43;100607.09;;;24.04;55.00
70909;BME280;58554;52.006;5.926;2022-08-19T11:26:11;100600.50;;;24.07;54.88
70909;BME280;58554;52.006;5.926;2022-08-19T11:28:38;100604.72;;;24.09;54.73
70909;BME280;58554;52.006;5.926;2022-08-19T11:31:12;100603.31;;;24.13;55.17
70909;BME280;58554;52.006;5.926;2022-08-19T11:33:40;100603.59;;;24.18;54.85
70909;BME280;58554;52.006;5.926;2022-08-19T11:36:07;100608.97;;;24.27;54.79
70909;BME280;58554;52.006;5.926;2022-08-19T11:38:35;100602.84;;;24.33;54.53
70909;BME280;58554;52.006;5.926;2022-08-19T11:41:04;100604.81;;;24.39;54.34
70909;BME280;58554;52.006;5.926;2022-08-19T11:43:33;100599.91;;;24.42;54.38
70909;BME280;58554;52.006;5.926;2022-08-19T11:46:04;100598.69;;;24.45;54.26
70909;BME280;58554;52.006;5.926;2022-08-19T11:48:34;100592.94;;;24.48;54.07
70909;BME280;58554;52.006;5.926;2022-08-19T11:51:05;100595.91;;;24.53;54.29
70909;BME280;58554;52.006;5.926;2022-08-19T11:53:33;100591.81;;;24.57;54.31
70909;BME280;58554;52.006;5.926;2022-08-19T11:56:01;100603.28;;;24.59;53.74
70909;BME280;58554;52.006;5.926;2022-08-19T11:58:28;100599.38;;;24.62;53.96
70909;BME280;58554;52.006;5.926;2022-08-19T12:00:56;100596.50;;;24.63;53.78
70909;BME280;58554;52.006;5.926;2022-08-19T12:03:22;100586.97;;;24.68;53.76
70909;BME280;58554;52.006;5.926;2022-08-19T12:05:52;100595.75;;;24.70;53.36
70909;BME280;58554;52.006;5.926;2022-08-19T12:08:19;100598.06;;;24.73;53.23
70909;BME280;58554;52.006;5.926;2022-08-19T12:10:46;100598.72;;;24.75;53.03
70909;BME280;58554;52.006;5.926;2022-08-19T12:13:13;100593.78;;;24.78;53.03
70909;BME280;58554;52.006;5.926;2022-08-19T12:15:40;100593.88;;;24.85;52.79
70909;BME280;58554;52.006;5.926;2022-08-19T12:18:08;100591.50;;;24.90;52.80
70909;BME280;58554;52.006;5.926;2022-08-19T12:20:36;100589.91;;;24.96;52.67
70909;BME280;58554;52.006;5.926;2022-08-19T12:23:09;100591.22;;;25.00;52.51
70909;BME280;58554;52.006;5.926;2022-08-19T12:25:36;100594.22;;;25.05;52.62
70909;BME280;58554;52.006;5.926;2022-08-19T12:28:03;100593.28;;;25.13;52.74
70909;BME280;58554;52.006;5.926;2022-08-19T12:30:30;100582.06;;;25.16;52.11
70909;BME280;58554;52.006;5.926;2022-08-19T12:32:56;100580.47;;;25.21;52.18
70909;BME280;58554;52.006;5.926;2022-08-19T12:35:22;100579.72;;;25.28;52.22
70909;BME280;58554;52.006;5.926;2022-08-19T12:37:49;100587.75;;;25.36;51.57
70909;BME280;58554;52.006;5.926;2022-08-19T12:40:18;100579.03;;;25.40;52.20
70909;BME280;58554;52.006;5.926;2022-08-19T12:42:44;100574.75;;;25.46;52.25
70909;BME280;58554;52.006;5.926;2022-08-19T12:45:12;100577.53;;;25.53;52.27
70909;BME280;58554;52.006;5.926;2022-08-19T12:47:40;100569.50;;;25.59;52.31
70909;BME280;58554;52.006;5.926;2022-08-19T12:50:07;100580.22;;;25.68;52.31
70909;BME280;58554;52.006;5.926;2022-08-19T12:52:35;100576.94;;;25.72;51.98
70909;BME280;58554;52.006;5.926;2022-08-19T12:55:04;100573.00;;;25.75;51.94
70909;BME280;58554;52.006;5.926;2022-08-19T12:57:35;100573.25;;;25.80;52.02